Time;durP1;ratioP1;P1;durP2;ratioP2;P2;SDS_P1;SDS_P2;PMS_P1;PMS_P2;Temp;Humidity;BMP_temperature;BMP_pressure;BME280_temperature;BME280_humidity;BME280_pressure;Samples;Min_cycle;Max_cycle;Signal;HPM_P1;HPM_P2
2022/04/17 00:02:41;;;;;;;2.42;1.30;;;12.10;42.10;;;;;;10185247;28;20462;-62
2022/04/17 00:07:33;;;;;;;2.85;2.58;;;12.00;42.30;;;;;;10187283;28;20382;-63
2022/04/17 00:12:24;;;;;;;2.05;1.20;;;12.10;42.40;;;;;;10172457;28;20032;-63
2022/04/17 00:17:14;;;;;;;6.68;1.70;;;12.10;42.60;;;;;;10149723;28;20021;-64
2022/04/17 00:22:05;;;;;;;1.05;0.88;;;12.00;42.80;;;;;;10150436;28;20021;-63
2022/04/17 00:26:59;;;;;;;3.40;1.50;;;11.90;43.00;;;;;;10160642;28;20513;-63
2022/04/17 00:31:50;;;;;;;2.05;1.27;;;11.80;43.40;;;;;;10183387;28;20071;-63
2022/04/17 00:36:40;;;;;;;2.25;1.33;;;11.80;43.40;;;;;;10185012;28;20059;-64
2022/04/17 00:41:31;;;;;;;1.23;1.08;;;11.60;43.60;;;;;;10175486;28;20035;-64
2022/04/17 00:46:22;;;;;;;1.20;1.00;;;11.60;43.90;;;;;;10177189;28;20090;-63
2022/04/17 00:51:15;;;;;;;4.13;1.67;;;11.50;44.00;;;;;;10185510;28;20576;-64
2022/04/17 00:56:06;;;;;;;1.67;1.10;;;11.60;44.20;;;;;;10169661;28;20499;-62
2022/04/17 01:00:57;;;;;;;1.05;0.90;;;11.50;44.80;;;;;;10155652;28;20052;-63
2022/04/17 01:05:48;;;;;;;3.00;1.65;;;11.30;45.30;;;;;;10174844;28;20367;-61
2022/04/17 01:10:39;;;;;;;2.03;1.20;;;11.10;45.70;;;;;;10187658;28;20025;-61
2022/04/17 01:15:31;;;;;;;1.85;1.30;;;11.00;45.90;;;;;;10183348;28;20048;-61
2022/04/17 01:20:25;;;;;;;1.70;1.00;;;10.80;46.60;;;;;;10186775;28;20513;-63
2022/04/17 01:30:29;;;;;;;1.90;1.42;;;10.70;46.80;;;;;;10140829;28;21037;-63
2022/04/17 01:35:20;;;;;;;1.88;1.35;;;10.90;46.40;;;;;;10165517;28;20040;-63
2022/04/17 01:40:11;;;;;;;3.47;1.17;;;10.70;47.10;;;;;;10189949;28;20026;-63
2022/04/17 01:45:02;;;;;;;2.47;1.23;;;10.60;47.00;;;;;;10183807;28;20024;-64
2022/04/17 01:49:52;;;;;;;2.20;1.30;;;10.50;47.50;;;;;;10195280;28;20429;-63
2022/04/17 01:54:43;;;;;;;1.92;1.02;;;10.30;47.90;;;;;;10192293;28;20039;-64
2022/04/17 01:59:34;;;;;;;1.35;1.25;;;10.40;47.90;;;;;;10165049;28;20078;-63
2022/04/17 02:04:27;;;;;;;4.20;2.13;;;10.40;47.80;;;;;;10182516;28;20084;-63
2022/04/17 02:09:18;;;;;;;2.40;1.33;;;10.30;48.10;;;;;;10193719;28;20084;-64
2022/04/17 02:14:09;;;;;;;3.13;1.13;;;10.10;48.60;;;;;;10175289;28;20040;-64
2022/04/17 02:19:00;;;;;;;3.72;3.03;;;10.00;49.20;;;;;;10191405;28;20112;-63
2022/04/17 02:23:51;;;;;;;3.65;1.60;;;10.10;48.80;;;;;;10168738;28;20565;-65
2022/04/17 02:28:41;;;;;;;5.70;2.53;;;10.00;48.80;;;;;;10150355;28;20064;-63
2022/04/17 02:33:33;;;;;;;1.65;1.25;;;10.00;48.80;;;;;;10171332;28;20054;-64
2022/04/17 02:38:24;;;;;;;3.05;1.73;;;10.00;49.20;;;;;;10200182;28;20024;-62
2022/04/17 02:43:15;;;;;;;3.38;1.73;;;10.00;48.90;;;;;;10143960;28;20203;-64
2022/04/17 02:48:06;;;;;;;2.83;1.30;;;9.90;49.50;;;;;;10142927;28;20191;-63
2022/04/17 02:52:57;;;;;;;2.33;1.83;;;9.90;49.60;;;;;;10136568;28;20054;-64
2022/04/17 02:57:48;;;;;;;3.28;2.70;;;9.80;49.30;;;;;;10170437;28;20026;-63
2022/04/17 03:07:52;;;;;;;4.43;2.22;;;9.60;49.90;;;;;;10203505;28;20385;-63
2022/04/17 03:12:43;;;;;;;4.38;1.77;;;9.40;50.00;;;;;;10169259;28;20050;-65
2022/04/17 03:17:34;;;;;;;4.57;2.33;;;9.20;50.10;;;;;;10174020;28;20505;-64
2022/04/17 03:22:25;;;;;;;3.55;2.50;;;9.10;50.80;;;;;;10154587;28;20567;-64
2022/04/17 03:27:16;;;;;;;4.47;1.98;;;9.00;50.60;;;;;;10172799;28;20079;-64
2022/04/17 03:32:07;;;;;;;2.10;1.83;;;9.10;50.70;;;;;;10173803;28;20514;-65
2022/04/17 03:36:58;;;;;;;2.90;1.83;;;9.20;50.70;;;;;;10172772;28;20042;-65
2022/04/17 03:41:48;;;;;;;3.28;2.15;;;9.10;50.90;;;;;;10170758;28;20128;-65
2022/04/17 03:46:40;;;;;;;2.58;1.77;;;9.20;50.80;;;;;;10154693;28;20062;-65
2022/04/17 03:51:31;;;;;;;2.50;1.73;;;9.10;51.20;;;;;;10173311;28;20038;-64
2022/04/17 03:56:21;;;;;;;2.47;1.70;;;9.00;51.20;;;;;;10176161;28;20273;-65
2022/04/17 04:01:12;;;;;;;3.33;1.58;;;9.00;51.50;;;;;;10159169;28;20028;-64
2022/04/17 04:06:04;;;;;;;4.47;1.80;;;9.00;51.50;;;;;;10191806;28;20028;-65
2022/04/17 04:10:54;;;;;;;2.55;1.42;;;9.00;51.70;;;;;;10171259;28;20351;-64
2022/04/17 04:15:45;;;;;;;3.25;1.98;;;9.00;51.80;;;;;;10159340;28;20044;-64
2022/04/17 04:20:36;;;;;;;2.42;1.98;;;9.00;51.90;;;;;;10172501;28;20081;-62
2022/04/17 04:25:26;;;;;;;4.80;1.70;;;9.10;51.90;;;;;;10171580;28;20171;-66
2022/04/17 04:30:17;;;;;;;2.85;2.03;;;9.00;52.30;;;;;;10171494;28;20048;-64
2022/04/17 04:35:08;;;;;;;1.90;1.67;;;9.00;52.30;;;;;;10158823;28;20094;-65
2022/04/17 04:39:59;;;;;;;1.90;1.30;;;8.90;52.50;;;;;;10170760;28;20020;-64
2022/04/17 04:46:06;;;;;;;4.90;1.90;;;8.90;52.80;;;;;;10171278;28;20062;-65
2022/04/17 04:50:01;;;;;;;2.95;1.58;;;8.90;52.80;;;;;;10169777;28;20051;-65
2022/04/17 04:54:52;;;;;;;3.80;2.20;;;8.90;52.70;;;;;;10168375;28;20065;-65
2022/04/17 04:59:42;;;;;;;2.65;1.55;;;8.90;53.00;;;;;;10169141;28;20089;-65
2022/04/17 05:04:33;;;;;;;2.65;1.63;;;8.80;53.50;;;;;;10153549;28;20609;-64
2022/04/17 05:09:24;;;;;;;3.33;1.95;;;8.60;53.90;;;;;;10205237;28;20046;-65
2022/04/17 05:14:18;;;;;;;2.60;1.80;;;8.60;54.10;;;;;;10160308;28;20478;-65
2022/04/17 05:19:24;;;;;;;3.42;1.58;;;8.40;54.60;;;;;;10164284;28;20032;-65
2022/04/17 05:24:15;;;;;;;3.10;1.70;;;8.70;54.00;;;;;;10173889;28;20090;-66
2022/04/17 05:29:06;;;;;;;2.50;2.08;;;8.60;54.20;;;;;;10181711;28;20052;-65
2022/04/17 05:33:57;;;;;;;3.42;1.70;;;8.60;53.80;;;;;;10174979;28;20039;-67
2022/04/17 05:38:47;;;;;;;3.75;1.60;;;8.70;53.70;;;;;;10196501;28;20032;-66
2022/04/17 05:43:39;;;;;;;1.67;1.58;;;8.80;54.00;;;;;;10186087;28;20027;-65
2022/04/17 05:48:29;;;;;;;1.70;1.30;;;8.70;54.80;;;;;;10192303;28;20023;-65
2022/04/17 05:53:20;;;;;;;3.03;1.65;;;8.70;54.80;;;;;;10157781;28;20036;-66
2022/04/17 05:58:11;;;;;;;4.35;1.65;;;8.70;55.00;;;;;;10155158;28;20032;-66
2022/04/17 06:03:02;;;;;;;3.08;1.80;;;8.80;54.80;;;;;;10168888;28;20036;-65
2022/04/17 06:07:52;;;;;;;2.65;1.58;;;8.90;54.50;;;;;;10206237;28;20028;-63
2022/04/17 06:12:43;;;;;;;2.17;1.60;;;8.90;54.70;;;;;;10189348;28;20067;-68
2022/04/17 06:17:38;;;;;;;3.95;1.92;;;8.90;54.70;;;;;;10153660;28;20544;-66
2022/04/17 06:22:29;;;;;;;2.60;1.48;;;8.90;55.30;;;;;;10173719;28;20082;-65
2022/04/17 06:27:19;;;;;;;3.65;2.08;;;8.90;55.30;;;;;;10168563;28;20085;-65
2022/04/17 06:32:11;;;;;;;3.00;1.40;;;8.80;55.30;;;;;;10181188;28;20044;-62
2022/04/17 06:37:01;;;;;;;4.20;1.88;;;8.90;55.50;;;;;;10177321;28;20050;-65
2022/04/17 06:41:54;;;;;;;3.90;1.88;;;8.90;55.00;;;;;;10166817;28;20036;-68
2022/04/17 06:46:45;;;;;;;3.00;1.73;;;9.00;55.30;;;;;;10179729;28;20032;-66
2022/04/17 06:51:35;;;;;;;2.78;2.47;;;9.00;55.10;;;;;;10156751;28;20096;-66
2022/04/17 06:56:26;;;;;;;2.63;1.83;;;8.90;55.60;;;;;;10183035;28;20073;-66
2022/04/17 07:01:17;;;;;;;2.88;1.88;;;9.30;55.10;;;;;;10158020;28;20032;-66
2022/04/17 07:06:08;;;;;;;2.15;1.52;;;9.40;55.00;;;;;;10195873;28;20027;-66
2022/04/17 07:10:59;;;;;;;4.25;2.35;;;9.70;54.50;;;;;;10168277;28;20025;-68
2022/04/17 07:15:50;;;;;;;2.50;2.00;;;9.90;54.20;;;;;;10143094;28;20486;-65
2022/04/17 07:20:40;;;;;;;2.78;1.80;;;10.00;54.30;;;;;;10167916;28;20029;-66
2022/04/17 07:25:31;;;;;;;3.20;1.90;;;10.10;54.40;;;;;;10153843;28;20407;-67
2022/04/17 07:30:24;;;;;;;2.83;1.92;;;10.20;54.20;;;;;;10179339;28;20077;-68
2022/04/17 07:35:16;;;;;;;2.60;1.50;;;10.40;54.00;;;;;;10190823;28;20075;-66
2022/04/17 07:40:13;;;;;;;2.13;1.63;;;10.50;53.90;;;;;;10177447;28;20054;-67
2022/04/17 07:45:04;;;;;;;2.15;1.40;;;10.50;53.90;;;;;;10196456;28;20109;-64
2022/04/17 07:49:54;;;;;;;3.90;1.80;;;10.60;53.80;;;;;;10151188;28;20382;-62
2022/04/17 07:54:46;;;;;;;2.22;1.70;;;10.60;53.80;;;;;;10172225;28;20051;-66
2022/04/17 07:59:36;;;;;;;7.05;2.78;;;10.70;53.60;;;;;;10190092;28;20272;-67
2022/04/17 08:04:28;;;;;;;2.50;1.67;;;10.80;53.50;;;;;;10158123;28;20243;-68
2022/04/17 08:09:18;;;;;;;2.85;1.48;;;11.00;53.20;;;;;;10186256;28;20024;-66
2022/04/17 08:14:09;;;;;;;1.85;1.55;;;11.10;53.00;;;;;;10131335;28;20089;-65
2022/04/17 08:18:59;;;;;;;3.00;1.60;;;11.20;52.90;;;;;;10146080;28;20266;-65
2022/04/17 08:23:50;;;;;;;3.88;1.35;;;11.20;52.50;;;;;;10144650;28;20037;-68
2022/04/17 08:28:41;;;;;;;2.70;1.85;;;11.40;52.00;;;;;;10163544;28;20039;-67
2022/04/17 08:33:32;;;;;;;2.30;1.58;;;11.40;51.60;;;;;;10166888;28;20127;-66
2022/04/17 08:38:23;;;;;;;3.47;1.63;;;11.50;52.00;;;;;;10174617;28;20497;-64
2022/04/17 08:43:18;;;;;;;2.85;1.80;;;11.60;51.10;;;;;;10184509;28;20036;-64
2022/04/17 08:48:09;;;;;;;2.80;1.50;;;11.80;50.80;;;;;;10189051;28;20395;-62
2022/04/17 08:53:01;;;;;;;1.52;1.42;;;11.80;50.50;;;;;;10171944;28;20549;-64
2022/04/17 08:57:52;;;;;;;3.40;1.70;;;11.80;50.70;;;;;;10155165;28;20024;-65
2022/04/17 09:02:44;;;;;;;2.30;1.83;;;12.00;50.30;;;;;;10180884;28;20111;-66
2022/04/17 09:07:44;;;;;;;2.83;1.50;;;12.10;50.50;;;;;;10173165;28;20036;-64
2022/04/17 09:12:35;;;;;;;2.70;1.63;;;12.30;49.70;;;;;;10181298;28;20112;-64
2022/04/17 09:17:30;;;;;;;4.25;1.52;;;12.60;49.40;;;;;;10190525;28;20161;-63
2022/04/17 09:22:20;;;;;;;2.58;1.40;;;12.70;48.50;;;;;;10208889;28;20047;-62
2022/04/17 09:27:11;;;;;;;3.35;2.35;;;12.70;48.60;;;;;;10177558;28;20111;-66
2022/04/17 09:32:07;;;;;;;2.70;1.23;;;12.90;48.40;;;;;;10173553;28;20474;-66
2022/04/17 09:36:58;;;;;;;1.90;1.40;;;13.00;47.80;;;;;;10146446;28;20032;-64
2022/04/17 09:42:00;;;;;;;2.65;1.58;;;13.10;47.70;;;;;;10172828;28;20032;-64
2022/04/17 09:46:56;;;;;;;2.20;1.35;;;13.30;47.70;;;;;;10175170;28;20435;-64
2022/04/17 09:51:47;;;;;;;3.53;1.40;;;13.50;46.80;;;;;;10193975;28;20016;-64
2022/04/17 09:56:46;;;;;;;1.77;1.42;;;13.20;47.20;;;;;;10136872;28;20085;-64
2022/04/17 10:01:37;;;;;;;3.40;1.90;;;13.50;47.10;;;;;;10143407;28;20028;-63
2022/04/17 10:06:28;;;;;;;3.17;1.45;;;13.60;46.80;;;;;;10148996;28;20498;-63
2022/04/17 10:11:19;;;;;;;2.53;1.40;;;13.80;46.60;;;;;;10176960;28;20479;-62
2022/04/17 10:16:12;;;;;;;3.97;1.80;;;13.90;46.10;;;;;;10184526;28;20031;-63
2022/04/17 10:21:06;;;;;;;2.25;1.42;;;13.80;45.90;;;;;;10191499;28;20031;-62
2022/04/17 10:26:00;;;;;;;3.65;1.55;;;14.00;45.90;;;;;;10183919;28;20074;-62
2022/04/17 10:31:08;;;;;;;1.33;1.15;;;14.20;45.40;;;;;;10179061;28;20044;-61
2022/04/17 10:36:18;;;;;;;2.30;1.13;;;14.30;44.90;;;;;;10156847;28;20362;-64
2022/04/17 10:41:12;;;;;;;1.60;1.10;;;14.40;44.90;;;;;;10167349;28;20028;-62
2022/04/17 10:46:09;;;;;;;3.40;1.60;;;14.40;44.50;;;;;;10174917;28;20021;-65
2022/04/17 10:51:19;;;;;;;3.97;1.05;;;14.50;44.50;;;;;;10163626;28;20063;-65
2022/04/17 10:56:14;;;;;;;2.78;1.48;;;14.80;44.00;;;;;;10182892;28;20063;-64
2022/04/17 11:01:05;;;;;;;;;;;14.90;43.90;;;;;;10170931;28;20444;-63
2022/04/17 11:06:12;;;;;;;1.85;1.08;;;15.00;42.40;;;;;;10199669;28;19916;-63
2022/04/17 11:11:03;;;;;;;1.98;1.67;;;15.00;43.40;;;;;;10178803;28;20044;-64
2022/04/17 11:15:55;;;;;;;3.15;1.40;;;15.00;43.00;;;;;;10139703;28;20036;-65
2022/04/17 11:20:53;;;;;;;1.40;1.10;;;15.10;43.40;;;;;;10142798;28;20348;-66
2022/04/17 11:25:49;;;;;;;2.20;1.05;;;15.30;43.00;;;;;;10161537;28;20031;-64
2022/04/17 11:30:40;;;;;;;4.72;1.00;;;15.60;42.60;;;;;;10171987;28;20064;-66
2022/04/17 11:35:31;;;;;;;2.42;1.05;;;15.60;42.20;;;;;;10194356;28;20043;-65
2022/04/17 11:40:24;;;;;;;3.60;1.27;;;15.60;42.10;;;;;;10179681;28;20024;-64
2022/04/17 11:45:25;;;;;;;2.10;1.05;;;15.70;41.90;;;;;;10137098;28;20404;-65
2022/04/17 11:50:21;;;;;;;2.50;1.25;;;15.90;41.40;;;;;;10156761;28;20028;-65
2022/04/17 11:55:11;;;;;;;2.42;1.17;;;15.80;41.40;;;;;;10139599;28;20036;-64
2022/04/17 12:00:02;;;;;;;3.35;1.63;;;16.00;41.10;;;;;;10161819;28;20027;-64
2022/04/17 12:05:16;;;;;;;2.47;1.75;;;16.20;40.80;;;;;;10192044;28;20090;-65
2022/04/17 12:10:15;;;;;;;1.88;1.40;;;16.30;40.50;;;;;;10140935;28;20042;-65
2022/04/17 12:15:08;;;;;;;2.05;1.13;;;16.50;39.90;;;;;;10168729;28;20093;-64
2022/04/17 12:20:00;;;;;;;2.45;0.85;;;16.60;39.40;;;;;;10166172;28;20094;-65
2022/04/17 12:24:52;;;;;;;1.35;0.90;;;16.80;39.10;;;;;;10172149;28;20027;-65
2022/04/17 12:29:42;;;;;;;1.95;1.10;;;17.40;39.10;;;;;;10174764;28;20089;-65
2022/04/17 12:34:33;;;;;;;1.60;1.48;;;17.70;39.20;;;;;;10189756;28;20475;-66
2022/04/17 12:39:32;;;;;;;1.25;1.00;;;18.00;38.70;;;;;;10193345;28;20024;-63
2022/04/17 12:44:33;;;;;;;1.70;1.38;;;18.30;38.50;;;;;;10167995;28;20081;-64
2022/04/17 12:49:28;;;;;;;1.08;0.80;;;18.80;37.30;;;;;;10149960;28;20020;-64
2022/04/17 12:54:18;;;;;;;1.17;0.75;;;19.50;38.90;;;;;;10167336;28;20046;-65
2022/04/17 12:59:11;;;;;;;1.15;0.90;;;19.90;39.50;;;;;;10163707;28;20047;-64
2022/04/17 13:04:16;;;;;;;1.17;0.82;;;20.20;39.70;;;;;;10186252;28;20039;-66
2022/04/17 13:09:18;;;;;;;1.98;1.00;;;20.20;36.80;;;;;;10163547;28;20394;-66
2022/04/17 13:14:09;;;;;;;1.50;0.80;;;20.50;37.80;;;;;;10158988;28;20088;-67
2022/04/17 13:19:00;;;;;;;2.15;1.05;;;21.40;35.80;;;;;;10160484;28;20433;-66
2022/04/17 13:23:51;;;;;;;1.10;0.95;;;22.30;34.60;;;;;;10169659;28;20039;-66
2022/04/17 13:28:42;;;;;;;2.00;0.98;;;23.10;33.60;;;;;;10174731;28;20028;-66
2022/04/17 13:33:33;;;;;;;1.00;0.80;;;23.70;32.90;;;;;;10188583;28;20048;-67
2022/04/17 13:38:24;;;;;;;2.38;1.60;;;24.80;32.10;;;;;;10194244;28;20050;-68
2022/04/17 13:43:15;;;;;;;1.88;1.00;;;25.50;31.70;;;;;;10177541;28;20086;-67
2022/04/17 13:48:07;;;;;;;1.50;0.82;;;25.40;30.70;;;;;;10157907;28;20066;-67
2022/04/17 13:52:58;;;;;;;1.02;0.93;;;25.50;30.30;;;;;;10162988;28;20526;-66
2022/04/17 13:57:51;;;;;;;0.82;0.70;;;25.90;30.00;;;;;;10195277;28;20077;-66
2022/04/17 14:02:42;;;;;;;1.52;0.85;;;25.90;29.70;;;;;;10182793;28;20528;-66
2022/04/17 14:07:35;;;;;;;3.03;1.20;;;25.70;29.50;;;;;;10201140;28;20056;-67
2022/04/17 14:12:26;;;;;;;1.42;1.05;;;25.40;29.30;;;;;;10170424;28;20498;-67
2022/04/17 14:17:16;;;;;;;1.58;0.88;;;25.30;29.20;;;;;;10169178;28;20050;-67
2022/04/17 14:22:07;;;;;;;0.68;0.68;;;25.40;29.10;;;;;;10161449;28;20031;-67
2022/04/17 14:26:58;;;;;;;2.30;1.30;;;24.60;29.30;;;;;;10175817;28;20019;-66
2022/04/17 14:31:48;;;;;;;5.47;2.88;;;25.00;28.90;;;;;;10188400;28;20532;-66
2022/04/17 14:36:39;;;;;;;2.47;0.90;;;26.00;29.00;;;;;;10192368;28;20150;-67
2022/04/17 14:41:30;;;;;;;1.05;0.95;;;26.60;28.60;;;;;;10182856;28;20020;-66
2022/04/17 14:46:21;;;;;;;0.82;0.80;;;26.70;28.40;;;;;;10184133;28;20079;-68
2022/04/17 14:51:12;;;;;;;1.05;0.90;;;26.10;28.20;;;;;;10149952;28;20048;-66
2022/04/17 14:56:03;;;;;;;0.85;0.70;;;26.20;28.30;;;;;;10153468;28;20036;-67
2022/04/17 15:00:54;;;;;;;3.83;0.90;;;26.80;27.90;;;;;;10148318;28;20019;-63
2022/04/17 15:05:45;;;;;;;1.80;1.05;;;27.00;27.60;;;;;;10173413;28;20024;-68
2022/04/17 15:10:39;;;;;;;1.08;0.98;;;27.90;27.70;;;;;;10165042;28;20023;-67
2022/04/17 15:15:31;;;;;;;1.58;0.88;;;27.50;27.20;;;;;;10163826;28;20103;-66
2022/04/17 15:20:22;;;;;;;3.15;0.95;;;26.90;26.90;;;;;;10148225;28;20024;-67
2022/04/17 15:25:12;;;;;;;2.53;1.20;;;27.00;26.60;;;;;;10165660;28;20235;-68
2022/04/17 15:30:04;;;;;;;1.10;0.88;;;26.90;26.30;;;;;;10160180;28;20850;-67
2022/04/17 15:34:55;;;;;;;1.73;1.20;;;27.60;26.20;;;;;;10167609;28;20209;-67
2022/04/17 15:39:45;;;;;;;1.20;1.00;;;28.50;25.70;;;;;;10180800;28;20148;-66
2022/04/17 15:49:47;;;;;;;1.73;0.90;;;30.00;26.00;;;;;;10172649;28;20039;-69
2022/04/17 15:54:38;;;;;;;1.00;0.60;;;29.70;25.20;;;;;;10165495;28;20040;-66
2022/04/17 15:59:28;;;;;;;2.00;1.17;;;29.10;24.90;;;;;;10169159;28;20521;-67
2022/04/17 16:04:19;;;;;;;1.10;0.70;;;29.00;24.70;;;;;;10193733;28;20028;-67
2022/04/17 16:09:11;;;;;;;3.05;1.05;;;29.40;24.50;;;;;;10169826;28;20050;-67
2022/04/17 16:14:01;;;;;;;1.03;0.80;;;31.30;24.40;;;;;;10168588;28;20548;-67
2022/04/17 16:18:52;;;;;;;1.65;1.05;;;30.90;23.90;;;;;;10166613;28;20016;-67
2022/04/17 16:23:44;;;;;;;6.72;1.08;;;30.80;23.70;;;;;;10171273;28;20020;-68
2022/04/17 16:28:35;;;;;;;1.10;1.00;;;30.40;23.70;;;;;;10178573;28;20047;-67
2022/04/17 16:33:26;;;;;;;0.60;0.60;;;31.00;23.70;;;;;;10171600;28;20071;-70
2022/04/17 16:38:17;;;;;;;1.25;1.00;;;31.30;23.70;;;;;;10198870;28;20521;-68
2022/04/17 16:43:07;;;;;;;1.77;1.10;;;30.90;23.80;;;;;;10180531;28;20028;-68
2022/04/17 16:47:58;;;;;;;1.95;1.10;;;30.80;23.90;;;;;;10155419;28;20057;-68
2022/04/17 16:52:49;;;;;;;2.22;1.10;;;31.30;23.90;;;;;;10160240;28;20044;-67
2022/04/17 17:02:49;;;;;;;3.15;1.38;;;30.80;24.10;;;;;;10180790;28;20073;-68
2022/04/17 17:07:40;;;;;;;2.65;1.40;;;30.90;23.90;;;;;;10181909;28;20066;-69
2022/04/17 17:12:31;;;;;;;1.75;1.10;;;30.00;24.30;;;;;;10178699;28;20104;-68
2022/04/17 17:17:21;;;;;;;2.80;1.48;;;29.60;24.40;;;;;;10167853;28;20288;-68
2022/04/17 17:22:12;;;;;;;1.63;1.08;;;27.70;24.70;;;;;;10146587;28;20108;-68
2022/04/17 17:27:03;;;;;;;1.25;0.90;;;23.30;26.90;;;;;;10156364;28;20065;-66
2022/04/17 17:31:54;;;;;;;3.10;1.38;;;21.20;27.90;;;;;;10168462;28;20410;-67
2022/04/17 17:36:45;;;;;;;1.60;1.10;;;20.20;28.40;;;;;;10195965;28;20050;-68
2022/04/17 17:41:35;;;;;;;1.88;1.23;;;19.80;28.50;;;;;;10191355;28;20023;-66
2022/04/17 17:46:26;;;;;;;1.65;1.30;;;19.30;28.70;;;;;;10149386;28;20551;-66
2022/04/17 17:51:19;;;;;;;1.73;1.05;;;19.10;28.80;;;;;;10162020;28;20086;-66
2022/04/17 17:56:11;;;;;;;4.22;0.98;;;19.00;28.80;;;;;;10172924;28;20038;-67
2022/04/17 18:01:02;;;;;;;2.25;1.10;;;18.80;29.10;;;;;;10174270;28;20588;-66
2022/04/17 18:05:53;;;;;;;1.80;1.25;;;18.60;29.20;;;;;;10202017;28;20024;-66
2022/04/17 18:15:53;;;;;;;1.75;1.02;;;18.30;29.60;;;;;;10165010;28;20513;-66
2022/04/17 18:20:44;;;;;;;2.92;1.15;;;18.10;29.90;;;;;;10168398;28;20119;-67
2022/04/17 18:25:35;;;;;;;3.65;1.10;;;18.00;30.10;;;;;;10163998;28;20107;-66
2022/04/17 18:30:26;;;;;;;2.30;1.63;;;17.80;30.50;;;;;;10153005;28;20117;-64
2022/04/17 18:35:16;;;;;;;1.65;0.95;;;17.70;30.60;;;;;;10176045;28;20429;-66
2022/04/17 18:40:09;;;;;;;1.42;1.00;;;17.60;30.90;;;;;;10172962;28;20024;-67
2022/04/17 18:45:00;;;;;;;2.47;0.98;;;17.50;30.90;;;;;;10174900;28;20036;-66
2022/04/17 18:49:51;;;;;;;1.90;0.88;;;17.60;30.80;;;;;;10171124;28;20045;-67
2022/04/17 18:54:43;;;;;;;2.00;0.88;;;17.40;31.00;;;;;;10173722;28;20520;-64
2022/04/17 18:59:34;;;;;;;1.92;1.13;;;17.50;30.90;;;;;;10164536;28;20086;-66
2022/04/17 19:04:25;;;;;;;1.70;1.40;;;17.40;31.00;;;;;;10194992;28;20505;-67
2022/04/17 19:09:15;;;;;;;5.80;1.27;;;17.40;31.00;;;;;;10179244;28;20024;-67
2022/04/17 19:14:08;;;;;;;5.20;1.20;;;17.20;31.30;;;;;;10165215;28;20044;-68
2022/04/17 19:18:59;;;;;;;1.98;1.10;;;17.20;31.30;;;;;;10158778;28;20016;-66
2022/04/17 19:23:51;;;;;;;1.60;1.10;;;17.10;31.60;;;;;;10180443;28;20569;-67
2022/04/17 19:28:41;;;;;;;2.08;1.00;;;17.00;31.70;;;;;;10184453;28;20047;-65
2022/04/17 19:38:41;;;;;;;2.15;1.38;;;16.80;32.30;;;;;;10171583;28;20081;-64
2022/04/17 19:43:32;;;;;;;2.70;1.48;;;16.50;32.80;;;;;;10174436;28;20074;-65
2022/04/17 19:48:22;;;;;;;2.95;1.42;;;16.40;33.10;;;;;;10161228;28;20663;-66
2022/04/17 19:53:13;;;;;;;1.85;1.20;;;16.40;33.10;;;;;;10173218;28;20032;-64
2022/04/17 19:58:04;;;;;;;2.38;1.00;;;16.40;33.20;;;;;;10172362;28;20020;-66
2022/04/17 20:02:55;;;;;;;1.92;1.38;;;16.30;33.20;;;;;;10171857;28;20027;-66
2022/04/17 20:07:45;;;;;;;3.42;1.23;;;16.30;33.40;;;;;;10185679;28;20094;-67
2022/04/17 20:12:36;;;;;;;1.20;1.02;;;16.20;33.50;;;;;;10170120;28;20024;-66
2022/04/17 20:17:27;;;;;;;3.67;0.88;;;16.00;34.10;;;;;;10146601;28;20108;-66
2022/04/17 20:22:17;;;;;;;2.25;1.30;;;15.90;34.20;;;;;;10158818;28;20029;-67
2022/04/17 20:27:08;;;;;;;1.77;1.23;;;15.80;34.20;;;;;;10169952;28;20020;-65
2022/04/17 20:32:00;;;;;;;2.53;1.02;;;15.70;34.60;;;;;;10153346;28;20294;-64
2022/04/17 20:36:52;;;;;;;1.67;1.17;;;15.50;35.10;;;;;;10153383;28;20579;-66
2022/04/17 20:41:43;;;;;;;1.60;1.15;;;15.40;35.00;;;;;;10174252;28;20527;-67
2022/04/17 20:51:43;;;;;;;3.55;1.80;;;15.40;35.00;;;;;;10179202;28;20081;-65
2022/04/17 20:56:34;;;;;;;2.85;1.48;;;15.20;35.10;;;;;;10177723;28;20081;-65
2022/04/17 21:01:25;;;;;;;1.88;1.30;;;15.20;35.20;;;;;;10162122;28;20038;-66
2022/04/17 21:06:15;;;;;;;1.77;1.17;;;15.10;35.50;;;;;;10192398;28;20032;-64
2022/04/17 21:11:06;;;;;;;2.47;1.15;;;15.00;35.70;;;;;;10187920;28;20036;-66
2022/04/17 21:15:57;;;;;;;5.07;2.25;;;14.90;35.90;;;;;;10165404;28;20501;-65
2022/04/17 21:20:50;;;;;;;3.20;1.75;;;14.80;36.00;;;;;;10167043;28;20021;-67
2022/04/17 21:25:41;;;;;;;3.20;1.63;;;14.70;36.10;;;;;;10197873;28;20028;-66
2022/04/17 21:30:32;;;;;;;2.05;1.48;;;14.60;36.40;;;;;;10185349;28;20083;-66
2022/04/17 21:35:22;;;;;;;3.60;1.42;;;14.50;36.50;;;;;;10196242;28;20047;-67
2022/04/17 21:40:13;;;;;;;2.17;1.60;;;14.50;36.50;;;;;;10180643;28;20035;-67
2022/04/17 21:45:05;;;;;;;5.47;2.05;;;14.40;36.70;;;;;;10178305;28;20114;-65
2022/04/17 21:49:56;;;;;;;2.40;2.15;;;14.30;37.00;;;;;;10176689;28;20032;-66
2022/04/17 21:54:47;;;;;;;3.97;1.60;;;14.30;37.30;;;;;;10175548;28;20138;-66
2022/04/17 22:04:47;;;;;;;3.65;1.55;;;14.30;37.60;;;;;;10177968;28;20059;-65
2022/04/17 22:09:37;;;;;;;3.55;2.05;;;14.20;37.70;;;;;;10173017;28;20199;-63
2022/04/17 22:14:28;;;;;;;10.32;2.25;;;14.20;37.80;;;;;;10164965;28;20045;-62
2022/04/17 22:19:19;;;;;;;3.33;1.98;;;14.20;37.90;;;;;;10170074;28;20200;-66
2022/04/17 22:24:10;;;;;;;3.75;2.10;;;14.10;38.10;;;;;;10167356;28;20155;-66
2022/04/17 22:29:01;;;;;;;3.58;1.80;;;14.00;38.20;;;;;;10182416;28;20048;-65
2022/04/17 22:33:52;;;;;;;2.10;1.40;;;14.10;38.40;;;;;;10180845;28;20480;-63
2022/04/17 22:38:42;;;;;;;1.60;1.20;;;14.20;38.60;;;;;;10203282;28;20028;-65
2022/04/17 22:43:36;;;;;;;2.10;1.35;;;14.20;38.80;;;;;;10183502;28;20441;-67
2022/04/17 22:48:27;;;;;;;1.75;1.30;;;14.10;38.90;;;;;;10151798;28;20032;-66
2022/04/17 22:53:20;;;;;;;2.10;1.05;;;13.90;39.00;;;;;;10168320;28;20036;-69
2022/04/17 22:58:11;;;;;;;2.05;1.38;;;13.70;39.10;;;;;;10166088;28;20028;-66
2022/04/17 23:03:01;;;;;;;4.13;1.95;;;13.60;39.40;;;;;;10181255;28;20440;-63
2022/04/17 23:07:52;;;;;;;2.65;1.27;;;13.60;39.40;;;;;;10193346;28;20088;-66
2022/04/17 23:12:43;;;;;;;2.25;1.20;;;13.40;39.50;;;;;;10151396;28;20040;-65
2022/04/17 23:17:35;;;;;;;1.88;1.27;;;13.40;39.80;;;;;;10132378;28;20296;-66
2022/04/17 23:22:25;;;;;;;1.30;1.08;;;13.30;39.90;;;;;;10160783;28;20120;-65
2022/04/17 23:27:16;;;;;;;1.75;1.10;;;13.30;40.00;;;;;;10169160;28;20104;-66
2022/04/17 23:32:07;;;;;;;2.38;1.60;;;13.20;40.20;;;;;;10163348;28;20465;-67
2022/04/17 23:36:58;;;;;;;2.00;1.35;;;13.20;40.30;;;;;;10192623;28;20039;-66
2022/04/17 23:41:48;;;;;;;3.60;1.45;;;13.10;40.60;;;;;;10180867;28;20386;-66
2022/04/17 23:46:39;;;;;;;1.60;1.15;;;13.10;40.60;;;;;;10156951;28;20032;-68
2022/04/17 23:51:29;;;;;;;1.85;1.23;;;13.20;40.80;;;;;;10142322;28;20702;-66
2022/04/17 23:56:20;;;;;;;1.42;1.30;;;13.00;41.40;;;;;;10168759;28;20058;-66
